sensor_id;sensor_type;location;lat;lon;timestamp;temperature;humidity
21646;DHT22;10984;45.712;4.800;2023-02-12T00:01:14;0.10;99.90
21646;DHT22;10984;45.712;4.800;2023-02-12T00:03:40;0.00;99.90
21646;DHT22;10984;45.712;4.800;2023-02-12T00:06:07;0.00;99.90
21646;DHT22;10984;45.712;4.800;2023-02-12T00:08:33;-0.10;99.90
21646;DHT22;10984;45.712;4.800;2023-02-12T00:10:58;-0.10;99.90
21646;DHT22;10984;45.712;4.800;2023-02-12T00:13:24;-0.20;99.90
21646;DHT22;10984;45.712;4.800;2023-02-12T00:15:50;-0.30;99.90
21646;DHT22;10984;45.712;4.800;2023-02-12T00:18:16;-0.40;99.90
21646;DHT22;10984;45.712;4.800;2023-02-12T00:20:42;-0.40;99.90
21646;DHT22;10984;45.712;4.800;2023-02-12T00:23:09;-0.50;99.90
21646;DHT22;10984;45.712;4.800;2023-02-12T00:25:40;-0.50;99.90
21646;DHT22;10984;45.712;4.800;2023-02-12T00:28:06;-0.50;99.90
21646;DHT22;10984;45.712;4.800;2023-02-12T00:30:31;-0.50;99.90
21646;DHT22;10984;45.712;4.800;2023-02-12T00:32:57;-0.50;99.90
21646;DHT22;10984;45.712;4.800;2023-02-12T00:35:22;-0.30;99.90
21646;DHT22;10984;45.712;4.800;2023-02-12T00:37:48;-0.30;99.90
21646;DHT22;10984;45.712;4.800;2023-02-12T00:40:14;-0.30;99.90
21646;DHT22;10984;45.712;4.800;2023-02-12T00:42:39;-0.20;99.90
21646;DHT22;10984;45.712;4.800;2023-02-12T00:45:05;-0.20;99.90
21646;DHT22;10984;45.712;4.800;2023-02-12T00:47:31;-0.20;99.90
21646;DHT22;10984;45.712;4.800;2023-02-12T00:49:56;-0.10;99.90
21646;DHT22;10984;45.712;4.800;2023-02-12T00:52:22;0.00;99.90
21646;DHT22;10984;45.712;4.800;2023-02-12T00:54:47;0.00;99.90
21646;DHT22;10984;45.712;4.800;2023-02-12T00:57:13;0.00;99.90
21646;DHT22;10984;45.712;4.800;2023-02-12T00:59:39;-0.10;99.90
21646;DHT22;10984;45.712;4.800;2023-02-12T01:02:06;-0.10;99.90
21646;DHT22;10984;45.712;4.800;2023-02-12T01:04:32;-0.20;99.90
21646;DHT22;10984;45.712;4.800;2023-02-12T01:06:57;-0.20;99.90
21646;DHT22;10984;45.712;4.800;2023-02-12T01:09:23;-0.20;99.90
21646;DHT22;10984;45.712;4.800;2023-02-12T01:11:49;-0.30;99.90
21646;DHT22;10984;45.712;4.800;2023-02-12T01:14:14;-0.40;99.90
21646;DHT22;10984;45.712;4.800;2023-02-12T01:16:40;-0.30;99.90
21646;DHT22;10984;45.712;4.800;2023-02-12T01:19:06;-0.40;99.90
21646;DHT22;10984;45.712;4.800;2023-02-12T01:21:33;-0.30;99.90
21646;DHT22;10984;45.712;4.800;2023-02-12T01:24:00;-0.30;99.90
21646;DHT22;10984;45.712;4.800;2023-02-12T01:26:27;-0.30;99.90
21646;DHT22;10984;45.712;4.800;2023-02-12T01:29:00;-0.30;99.90
21646;DHT22;10984;45.712;4.800;2023-02-12T01:34:11;-0.40;99.90
21646;DHT22;10984;45.712;4.800;2023-02-12T01:36:37;-0.40;99.90
21646;DHT22;10984;45.712;4.800;2023-02-12T01:39:04;-0.50;99.90
21646;DHT22;10984;45.712;4.800;2023-02-12T01:41:49;-0.50;99.90
21646;DHT22;10984;45.712;4.800;2023-02-12T01:44:17;-0.50;99.90
21646;DHT22;10984;45.712;4.800;2023-02-12T01:46:45;-0.50;99.90
21646;DHT22;10984;45.712;4.800;2023-02-12T01:49:19;-0.50;99.90
21646;DHT22;10984;45.712;4.800;2023-02-12T01:51:49;-0.50;99.90
21646;DHT22;10984;45.712;4.800;2023-02-12T01:54:16;-0.60;99.90
21646;DHT22;10984;45.712;4.800;2023-02-12T01:56:43;-0.60;99.90
21646;DHT22;10984;45.712;4.800;2023-02-12T01:59:09;-0.70;99.90
21646;DHT22;10984;45.712;4.800;2023-02-12T02:01:36;-0.70;99.90
21646;DHT22;10984;45.712;4.800;2023-02-12T02:04:06;-0.70;99.90
21646;DHT22;10984;45.712;4.800;2023-02-12T02:09:37;-0.70;99.90
21646;DHT22;10984;45.712;4.800;2023-02-12T02:12:04;-0.70;99.90
21646;DHT22;10984;45.712;4.800;2023-02-12T02:14:48;-0.70;99.90
21646;DHT22;10984;45.712;4.800;2023-02-12T02:32:35;-0.70;99.90
21646;DHT22;10984;45.712;4.800;2023-02-12T02:43:41;-0.70;99.90
21646;DHT22;10984;45.712;4.800;2023-02-12T02:46:30;-0.70;99.90
21646;DHT22;10984;45.712;4.800;2023-02-12T02:49:01;-0.70;99.90
21646;DHT22;10984;45.712;4.800;2023-02-12T02:54:26;-0.80;99.90
21646;DHT22;10984;45.712;4.800;2023-02-12T02:59:48;-0.80;99.90
21646;DHT22;10984;45.712;4.800;2023-02-12T03:02:22;-0.80;99.90
21646;DHT22;10984;45.712;4.800;2023-02-12T03:04:53;-0.80;99.90
21646;DHT22;10984;45.712;4.800;2023-02-12T03:07:30;-0.80;99.90
21646;DHT22;10984;45.712;4.800;2023-02-12T03:10:03;-0.80;99.90
21646;DHT22;10984;45.712;4.800;2023-02-12T03:12:51;-0.80;99.90
21646;DHT22;10984;45.712;4.800;2023-02-12T03:18:10;-0.90;99.90
21646;DHT22;10984;45.712;4.800;2023-02-12T03:23:46;-1.00;99.90
21646;DHT22;10984;45.712;4.800;2023-02-12T03:29:01;-1.10;99.90
21646;DHT22;10984;45.712;4.800;2023-02-12T03:42:54;-1.30;99.90
21646;DHT22;10984;45.712;4.800;2023-02-12T03:48:45;-1.30;99.90
21646;DHT22;10984;45.712;4.800;2023-02-12T03:54:19;-1.30;99.90
21646;DHT22;10984;45.712;4.800;2023-02-12T03:57:05;-1.40;99.90
21646;DHT22;10984;45.712;4.800;2023-02-12T03:59:35;-1.30;99.90
21646;DHT22;10984;45.712;4.800;2023-02-12T04:02:02;-1.30;99.90
21646;DHT22;10984;45.712;4.800;2023-02-12T04:04:28;-1.30;99.90
21646;DHT22;10984;45.712;4.800;2023-02-12T04:06:54;-1.30;99.90
21646;DHT22;10984;45.712;4.800;2023-02-12T04:09:21;-1.30;99.90
21646;DHT22;10984;45.712;4.800;2023-02-12T04:29:12;-1.40;99.90
21646;DHT22;10984;45.712;4.800;2023-02-12T04:40:34;-1.50;99.90
21646;DHT22;10984;45.712;4.800;2023-02-12T04:43:00;-1.60;99.90
21646;DHT22;10984;45.712;4.800;2023-02-12T04:45:29;-1.60;99.90
21646;DHT22;10984;45.712;4.800;2023-02-12T04:47:55;-1.60;99.90
21646;DHT22;10984;45.712;4.800;2023-02-12T04:50:21;-1.60;99.90
21646;DHT22;10984;45.712;4.800;2023-02-12T04:52:47;-1.60;99.90
21646;DHT22;10984;45.712;4.800;2023-02-12T04:55:13;-1.60;99.90
21646;DHT22;10984;45.712;4.800;2023-02-12T04:57:39;-1.60;99.90
21646;DHT22;10984;45.712;4.800;2023-02-12T05:00:06;-1.60;99.90
21646;DHT22;10984;45.712;4.800;2023-02-12T05:02:34;-1.70;99.90
21646;DHT22;10984;45.712;4.800;2023-02-12T05:04:59;-1.70;99.90
21646;DHT22;10984;45.712;4.800;2023-02-12T05:07:25;-1.80;99.90
21646;DHT22;10984;45.712;4.800;2023-02-12T05:09:51;-1.80;99.90
21646;DHT22;10984;45.712;4.800;2023-02-12T05:12:16;-1.80;99.90
21646;DHT22;10984;45.712;4.800;2023-02-12T05:14:42;-1.80;99.90
21646;DHT22;10984;45.712;4.800;2023-02-12T05:17:07;-1.80;99.90
21646;DHT22;10984;45.712;4.800;2023-02-12T05:19:33;-1.90;99.90
21646;DHT22;10984;45.712;4.800;2023-02-12T05:21:59;-1.90;99.90
21646;DHT22;10984;45.712;4.800;2023-02-12T05:24:24;-1.90;99.90
21646;DHT22;10984;45.712;4.800;2023-02-12T05:26:50;-1.90;99.90
21646;DHT22;10984;45.712;4.800;2023-02-12T05:29:16;-1.90;99.90
21646;DHT22;10984;45.712;4.800;2023-02-12T05:31:42;-1.90;99.90
21646;DHT22;10984;45.712;4.800;2023-02-12T05:34:27;-1.80;99.90
21646;DHT22;10984;45.712;4.800;2023-02-12T05:36:52;-1.90;99.90
21646;DHT22;10984;45.712;4.800;2023-02-12T05:39:18;-1.90;99.90
21646;DHT22;10984;45.712;4.800;2023-02-12T05:41:43;-1.90;99.90
21646;DHT22;10984;45.712;4.800;2023-02-12T05:44:09;-1.90;99.90
21646;DHT22;10984;45.712;4.800;2023-02-12T05:46:54;-1.90;99.90
21646;DHT22;10984;45.712;4.800;2023-02-12T05:49:19;-1.80;99.90
21646;DHT22;10984;45.712;4.800;2023-02-12T05:51:45;-1.90;99.90
21646;DHT22;10984;45.712;4.800;2023-02-12T05:54:11;-1.90;99.90
21646;DHT22;10984;45.712;4.800;2023-02-12T05:56:42;-1.90;99.90
21646;DHT22;10984;45.712;4.800;2023-02-12T05:59:11;-1.90;99.90
21646;DHT22;10984;45.712;4.800;2023-02-12T06:01:40;-1.90;99.90
21646;DHT22;10984;45.712;4.800;2023-02-12T06:04:09;-1.90;99.90
21646;DHT22;10984;45.712;4.800;2023-02-12T06:06:37;-1.90;99.90
21646;DHT22;10984;45.712;4.800;2023-02-12T06:09:07;-1.90;99.90
21646;DHT22;10984;45.712;4.800;2023-02-12T06:11:33;-1.90;99.90
21646;DHT22;10984;45.712;4.800;2023-02-12T06:14:02;-1.90;99.90
21646;DHT22;10984;45.712;4.800;2023-02-12T06:16:28;-1.80;99.90
21646;DHT22;10984;45.712;4.800;2023-02-12T06:18:55;-1.80;99.90
21646;DHT22;10984;45.712;4.800;2023-02-12T06:21:22;-1.80;99.90
21646;DHT22;10984;45.712;4.800;2023-02-12T06:23:49;-1.70;99.90
21646;DHT22;10984;45.712;4.800;2023-02-12T06:26:15;-1.80;99.90
21646;DHT22;10984;45.712;4.800;2023-02-12T06:28:41;-1.80;99.90
21646;DHT22;10984;45.712;4.800;2023-02-12T06:34:12;-1.90;99.90
21646;DHT22;10984;45.712;4.800;2023-02-12T06:36:41;-1.90;99.90
21646;DHT22;10984;45.712;4.800;2023-02-12T06:39:10;-1.80;99.90
21646;DHT22;10984;45.712;4.800;2023-02-12T06:41:36;-1.80;99.90
21646;DHT22;10984;45.712;4.800;2023-02-12T06:44:02;-1.80;99.90
21646;DHT22;10984;45.712;4.800;2023-02-12T06:46:27;-1.90;99.90
21646;DHT22;10984;45.712;4.800;2023-02-12T06:48:58;-1.90;99.90
21646;DHT22;10984;45.712;4.800;2023-02-12T06:51:24;-1.90;99.90
21646;DHT22;10984;45.712;4.800;2023-02-12T06:53:51;-1.90;99.90
21646;DHT22;10984;45.712;4.800;2023-02-12T06:56:18;-1.90;99.90
21646;DHT22;10984;45.712;4.800;2023-02-12T06:58:46;-2.00;99.90
21646;DHT22;10984;45.712;4.800;2023-02-12T07:01:30;-1.90;99.90
21646;DHT22;10984;45.712;4.800;2023-02-12T07:06:41;-1.90;99.90
21646;DHT22;10984;45.712;4.800;2023-02-12T07:09:07;-1.90;99.90
21646;DHT22;10984;45.712;4.800;2023-02-12T07:11:34;-1.90;99.90
21646;DHT22;10984;45.712;4.800;2023-02-12T07:14:00;-1.80;99.90
21646;DHT22;10984;45.712;4.800;2023-02-12T07:16:26;-1.80;99.90
21646;DHT22;10984;45.712;4.800;2023-02-12T07:18:52;-1.70;99.90
21646;DHT22;10984;45.712;4.800;2023-02-12T07:21:18;-1.50;99.90
21646;DHT22;10984;45.712;4.800;2023-02-12T07:24:03;-1.40;99.90
21646;DHT22;10984;45.712;4.800;2023-02-12T07:26:28;-1.40;99.90
21646;DHT22;10984;45.712;4.800;2023-02-12T07:28:56;-1.30;99.90
21646;DHT22;10984;45.712;4.800;2023-02-12T07:31:22;-1.30;99.90
21646;DHT22;10984;45.712;4.800;2023-02-12T07:33:52;-1.20;99.90
21646;DHT22;10984;45.712;4.800;2023-02-12T07:36:19;-1.10;99.90
21646;DHT22;10984;45.712;4.800;2023-02-12T07:38:45;-1.00;99.90
21646;DHT22;10984;45.712;4.800;2023-02-12T07:44:14;-0.80;99.90
21646;DHT22;10984;45.712;4.800;2023-02-12T07:49:24;-0.60;99.90
21646;DHT22;10984;45.712;4.800;2023-02-12T07:51:50;-0.50;99.90
21646;DHT22;10984;45.712;4.800;2023-02-12T07:54:16;-0.40;99.90
21646;DHT22;10984;45.712;4.800;2023-02-12T07:56:42;-0.20;99.90
21646;DHT22;10984;45.712;4.800;2023-02-12T07:59:13;-0.10;99.90
21646;DHT22;10984;45.712;4.800;2023-02-12T08:01:41;-0.10;99.90
21646;DHT22;10984;45.712;4.800;2023-02-12T08:04:10;0.00;99.90
21646;DHT22;10984;45.712;4.800;2023-02-12T08:06:38;0.20;99.90
21646;DHT22;10984;45.712;4.800;2023-02-12T08:09:07;0.20;99.90
21646;DHT22;10984;45.712;4.800;2023-02-12T08:11:35;0.40;99.90
21646;DHT22;10984;45.712;4.800;2023-02-12T08:14:02;0.50;99.90
21646;DHT22;10984;45.712;4.800;2023-02-12T08:16:28;0.60;99.90
21646;DHT22;10984;45.712;4.800;2023-02-12T08:18:55;0.80;99.90
21646;DHT22;10984;45.712;4.800;2023-02-12T08:21:23;1.00;99.90
21646;DHT22;10984;45.712;4.800;2023-02-12T08:23:49;1.00;99.90
21646;DHT22;10984;45.712;4.800;2023-02-12T08:26:35;1.20;99.90
21646;DHT22;10984;45.712;4.800;2023-02-12T08:29:03;1.30;99.90
21646;DHT22;10984;45.712;4.800;2023-02-12T08:34:34;1.50;99.90
21646;DHT22;10984;45.712;4.800;2023-02-12T08:37:00;1.60;99.90
21646;DHT22;10984;45.712;4.800;2023-02-12T08:39:27;1.70;99.90
21646;DHT22;10984;45.712;4.800;2023-02-12T08:41:54;1.80;99.90
21646;DHT22;10984;45.712;4.800;2023-02-12T08:44:20;1.90;99.90
21646;DHT22;10984;45.712;4.800;2023-02-12T08:46:47;1.90;99.90
21646;DHT22;10984;45.712;4.800;2023-02-12T08:49:20;2.00;99.90
21646;DHT22;10984;45.712;4.800;2023-02-12T08:51:48;2.00;99.90
21646;DHT22;10984;45.712;4.800;2023-02-12T08:54:22;2.20;99.90
21646;DHT22;10984;45.712;4.800;2023-02-12T08:56:48;2.30;99.90
21646;DHT22;10984;45.712;4.800;2023-02-12T08:59:15;2.40;99.90
21646;DHT22;10984;45.712;4.800;2023-02-12T09:01:41;2.60;99.90
21646;DHT22;10984;45.712;4.800;2023-02-12T09:04:19;2.70;99.90
21646;DHT22;10984;45.712;4.800;2023-02-12T09:06:46;2.80;99.90
21646;DHT22;10984;45.712;4.800;2023-02-12T09:09:13;2.90;99.90
21646;DHT22;10984;45.712;4.800;2023-02-12T09:11:39;2.90;99.90
21646;DHT22;10984;45.712;4.800;2023-02-12T09:14:07;3.00;99.90
21646;DHT22;10984;45.712;4.800;2023-02-12T09:16:34;3.10;99.90
21646;DHT22;10984;45.712;4.800;2023-02-12T09:19:01;3.20;99.90
21646;DHT22;10984;45.712;4.800;2023-02-12T09:21:27;3.30;99.90
21646;DHT22;10984;45.712;4.800;2023-02-12T09:23:53;3.30;99.90
21646;DHT22;10984;45.712;4.800;2023-02-12T09:26:21;3.40;99.90
21646;DHT22;10984;45.712;4.800;2023-02-12T09:28:48;3.50;99.90
21646;DHT22;10984;45.712;4.800;2023-02-12T09:31:17;3.60;99.90
21646;DHT22;10984;45.712;4.800;2023-02-12T09:33:45;3.70;99.90
21646;DHT22;10984;45.712;4.800;2023-02-12T09:36:13;3.70;99.90
21646;DHT22;10984;45.712;4.800;2023-02-12T09:38:40;3.80;99.90
21646;DHT22;10984;45.712;4.800;2023-02-12T09:53:01;4.10;99.90
21646;DHT22;10984;45.712;4.800;2023-02-12T09:55:46;4.10;99.90
21646;DHT22;10984;45.712;4.800;2023-02-12T09:58:18;4.20;99.90
21646;DHT22;10984;45.712;4.800;2023-02-12T10:00:45;4.30;99.90
21646;DHT22;10984;45.712;4.800;2023-02-12T10:03:14;4.30;99.90
21646;DHT22;10984;45.712;4.800;2023-02-12T10:22:37;4.60;99.90
21646;DHT22;10984;45.712;4.800;2023-02-12T10:28:15;4.70;99.90
21646;DHT22;10984;45.712;4.800;2023-02-12T10:31:12;4.80;99.90
21646;DHT22;10984;45.712;4.800;2023-02-12T10:33:58;4.80;99.90
21646;DHT22;10984;45.712;4.800;2023-02-12T10:36:43;4.80;99.90
21646;DHT22;10984;45.712;4.800;2023-02-12T10:44:38;4.90;99.90
21646;DHT22;10984;45.712;4.800;2023-02-12T10:47:03;5.00;99.90
21646;DHT22;10984;45.712;4.800;2023-02-12T10:49:30;5.00;99.90
21646;DHT22;10984;45.712;4.800;2023-02-12T10:54:59;5.10;99.90
21646;DHT22;10984;45.712;4.800;2023-02-12T10:57:28;5.10;99.90
21646;DHT22;10984;45.712;4.800;2023-02-12T10:59:56;5.20;99.90
21646;DHT22;10984;45.712;4.800;2023-02-12T11:02:38;5.20;99.90
21646;DHT22;10984;45.712;4.800;2023-02-12T11:05:24;5.20;99.90
21646;DHT22;10984;45.712;4.800;2023-02-12T11:07:51;5.30;99.90
21646;DHT22;10984;45.712;4.800;2023-02-12T11:10:37;5.40;99.90
21646;DHT22;10984;45.712;4.800;2023-02-12T11:13:03;5.50;99.90
21646;DHT22;10984;45.712;4.800;2023-02-12T11:18:36;5.60;99.90
21646;DHT22;10984;45.712;4.800;2023-02-12T11:26:32;5.70;99.90
21646;DHT22;10984;45.712;4.800;2023-02-12T11:29:00;5.70;99.90
21646;DHT22;10984;45.712;4.800;2023-02-12T11:34:31;5.80;99.90
21646;DHT22;10984;45.712;4.800;2023-02-12T11:36:56;5.80;99.90
21646;DHT22;10984;45.712;4.800;2023-02-12T11:39:41;5.90;99.90
21646;DHT22;10984;45.712;4.800;2023-02-12T11:42:29;5.90;99.90
21646;DHT22;10984;45.712;4.800;2023-02-12T11:44:59;5.90;99.90
21646;DHT22;10984;45.712;4.800;2023-02-12T11:47:26;6.00;99.90
21646;DHT22;10984;45.712;4.800;2023-02-12T11:58:47;6.30;99.90
21646;DHT22;10984;45.712;4.800;2023-02-12T12:01:32;6.30;99.90
21646;DHT22;10984;45.712;4.800;2023-02-12T12:04:19;6.30;99.90
21646;DHT22;10984;45.712;4.800;2023-02-12T12:55:10;7.00;99.90
21646;DHT22;10984;45.712;4.800;2023-02-12T13:18:08;7.20;99.90
21646;DHT22;10984;45.712;4.800;2023-02-12T13:26:45;7.40;99.90
21646;DHT22;10984;45.712;4.800;2023-02-12T13:32:18;7.40;99.90
21646;DHT22;10984;45.712;4.800;2023-02-12T13:34:46;7.40;99.90
21646;DHT22;10984;45.712;4.800;2023-02-12T13:40:34;7.50;99.90
21646;DHT22;10984;45.712;4.800;2023-02-12T13:43:26;7.50;99.90
21646;DHT22;10984;45.712;4.800;2023-02-12T13:51:46;7.60;99.90
21646;DHT22;10984;45.712;4.800;2023-02-12T13:57:01;7.60;99.90
21646;DHT22;10984;45.712;4.800;2023-02-12T14:04:57;7.70;99.90
21646;DHT22;10984;45.712;4.800;2023-02-12T14:07:40;7.70;99.90
21646;DHT22;10984;45.712;4.800;2023-02-12T14:10:06;7.80;99.90
21646;DHT22;10984;45.712;4.800;2023-02-12T14:12:35;7.90;99.90
21646;DHT22;10984;45.712;4.800;2023-02-12T14:23:38;7.80;99.90
21646;DHT22;10984;45.712;4.800;2023-02-12T14:26:24;7.70;99.90
21646;DHT22;10984;45.712;4.800;2023-02-12T14:29:14;7.80;99.90
21646;DHT22;10984;45.712;4.800;2023-02-12T14:31:41;7.70;99.90
21646;DHT22;10984;45.712;4.800;2023-02-12T14:41:49;7.70;99.90
21646;DHT22;10984;45.712;4.800;2023-02-12T14:47:02;7.60;99.90
21646;DHT22;10984;45.712;4.800;2023-02-12T14:49:35;7.70;99.90
21646;DHT22;10984;45.712;4.800;2023-02-12T14:52:25;7.70;99.90
21646;DHT22;10984;45.712;4.800;2023-02-12T14:57:58;7.70;99.90
21646;DHT22;10984;45.712;4.800;2023-02-12T15:00:44;7.70;99.90
21646;DHT22;10984;45.712;4.800;2023-02-12T15:06:18;7.70;99.90
21646;DHT22;10984;45.712;4.800;2023-02-12T15:11:54;7.70;99.90
21646;DHT22;10984;45.712;4.800;2023-02-12T15:14:26;7.60;99.90
21646;DHT22;10984;45.712;4.800;2023-02-12T15:17:13;7.60;99.90
21646;DHT22;10984;45.712;4.800;2023-02-12T15:22:45;7.60;99.90
21646;DHT22;10984;45.712;4.800;2023-02-12T15:25:30;7.50;99.90
21646;DHT22;10984;45.712;4.800;2023-02-12T15:31:02;7.40;99.90
21646;DHT22;10984;45.712;4.800;2023-02-12T15:33:31;7.40;99.90
21646;DHT22;10984;45.712;4.800;2023-02-12T15:35:58;7.40;99.90
21646;DHT22;10984;45.712;4.800;2023-02-12T15:38:31;7.40;99.90
21646;DHT22;10984;45.712;4.800;2023-02-12T15:41:00;7.40;99.90
21646;DHT22;10984;45.712;4.800;2023-02-12T15:43:28;7.40;99.90
21646;DHT22;10984;45.712;4.800;2023-02-12T15:45:56;7.30;99.90
21646;DHT22;10984;45.712;4.800;2023-02-12T15:48:27;7.40;99.90
21646;DHT22;10984;45.712;4.800;2023-02-12T15:50:54;7.30;99.90
21646;DHT22;10984;45.712;4.800;2023-02-12T15:53:25;7.20;99.90
21646;DHT22;10984;45.712;4.800;2023-02-12T15:55:52;7.20;99.90
21646;DHT22;10984;45.712;4.800;2023-02-12T16:01:05;7.30;99.90
21646;DHT22;10984;45.712;4.800;2023-02-12T16:03:34;7.30;99.90
21646;DHT22;10984;45.712;4.800;2023-02-12T16:06:03;7.20;99.90
21646;DHT22;10984;45.712;4.800;2023-02-12T16:08:32;7.20;99.90
21646;DHT22;10984;45.712;4.800;2023-02-12T16:10:59;7.10;99.90
21646;DHT22;10984;45.712;4.800;2023-02-12T16:16:37;6.90;99.90
21646;DHT22;10984;45.712;4.800;2023-02-12T16:24:38;6.50;99.90
21646;DHT22;10984;45.712;4.800;2023-02-12T16:33:32;6.30;99.90
21646;DHT22;10984;45.712;4.800;2023-02-12T16:36:35;6.10;99.90
21646;DHT22;10984;45.712;4.800;2023-02-12T16:42:30;5.80;99.90
21646;DHT22;10984;45.712;4.800;2023-02-12T16:44:56;5.70;99.90
21646;DHT22;10984;45.712;4.800;2023-02-12T16:47:23;5.60;99.90
21646;DHT22;10984;45.712;4.800;2023-02-12T16:50:13;5.50;99.90
21646;DHT22;10984;45.712;4.800;2023-02-12T16:52:40;5.30;99.90
21646;DHT22;10984;45.712;4.800;2023-02-12T16:57:55;5.10;99.90
21646;DHT22;10984;45.712;4.800;2023-02-12T17:00:21;4.90;99.90
21646;DHT22;10984;45.712;4.800;2023-02-12T17:02:47;4.80;99.90
21646;DHT22;10984;45.712;4.800;2023-02-12T17:05:13;4.70;99.90
21646;DHT22;10984;45.712;4.800;2023-02-12T17:07:41;4.60;99.90
21646;DHT22;10984;45.712;4.800;2023-02-12T17:10:14;4.50;99.90
21646;DHT22;10984;45.712;4.800;2023-02-12T17:12:58;4.50;99.90
21646;DHT22;10984;45.712;4.800;2023-02-12T17:15:29;4.30;99.90
21646;DHT22;10984;45.712;4.800;2023-02-12T17:17:57;4.20;99.90
21646;DHT22;10984;45.712;4.800;2023-02-12T17:20:23;4.00;99.90
21646;DHT22;10984;45.712;4.800;2023-02-12T17:22:51;4.00;99.90
21646;DHT22;10984;45.712;4.800;2023-02-12T17:25:17;3.90;99.90
21646;DHT22;10984;45.712;4.800;2023-02-12T17:27:43;3.80;99.90
21646;DHT22;10984;45.712;4.800;2023-02-12T17:30:14;3.80;99.90
21646;DHT22;10984;45.712;4.800;2023-02-12T17:32:40;3.70;99.90
21646;DHT22;10984;45.712;4.800;2023-02-12T17:35:06;3.60;99.90
21646;DHT22;10984;45.712;4.800;2023-02-12T17:37:32;3.50;99.90
21646;DHT22;10984;45.712;4.800;2023-02-12T17:39:57;3.50;99.90
21646;DHT22;10984;45.712;4.800;2023-02-12T17:42:23;3.50;99.90
21646;DHT22;10984;45.712;4.800;2023-02-12T17:44:49;3.40;99.90
21646;DHT22;10984;45.712;4.800;2023-02-12T17:47:15;3.30;99.90
21646;DHT22;10984;45.712;4.800;2023-02-12T17:49:40;3.30;99.90
21646;DHT22;10984;45.712;4.800;2023-02-12T17:52:06;3.30;99.90
21646;DHT22;10984;45.712;4.800;2023-02-12T17:54:32;3.20;99.90
21646;DHT22;10984;45.712;4.800;2023-02-12T17:56:57;3.10;99.90
21646;DHT22;10984;45.712;4.800;2023-02-12T17:59:23;3.10;99.90
21646;DHT22;10984;45.712;4.800;2023-02-12T18:01:49;3.00;99.90
21646;DHT22;10984;45.712;4.800;2023-02-12T18:04:14;3.00;99.90
21646;DHT22;10984;45.712;4.800;2023-02-12T18:06:40;3.00;99.90
21646;DHT22;10984;45.712;4.800;2023-02-12T18:09:06;2.90;99.90
21646;DHT22;10984;45.712;4.800;2023-02-12T18:11:32;2.80;99.90
21646;DHT22;10984;45.712;4.800;2023-02-12T18:13:58;2.80;99.90
21646;DHT22;10984;45.712;4.800;2023-02-12T18:16:26;2.70;99.90
21646;DHT22;10984;45.712;4.800;2023-02-12T18:18:51;2.70;99.90
21646;DHT22;10984;45.712;4.800;2023-02-12T18:21:17;2.60;99.90
21646;DHT22;10984;45.712;4.800;2023-02-12T18:23:43;2.60;99.90
21646;DHT22;10984;45.712;4.800;2023-02-12T18:26:28;2.60;99.90
21646;DHT22;10984;45.712;4.800;2023-02-12T18:28:56;2.60;99.90
21646;DHT22;10984;45.712;4.800;2023-02-12T18:31:23;2.50;99.90
21646;DHT22;10984;45.712;4.800;2023-02-12T18:33:49;2.50;99.90
21646;DHT22;10984;45.712;4.800;2023-02-12T18:36:16;2.40;99.90
21646;DHT22;10984;45.712;4.800;2023-02-12T18:38:44;2.30;99.90
21646;DHT22;10984;45.712;4.800;2023-02-12T18:41:29;2.30;99.90
21646;DHT22;10984;45.712;4.800;2023-02-12T18:43:56;2.30;99.90
21646;DHT22;10984;45.712;4.800;2023-02-12T18:46:25;2.30;99.90
21646;DHT22;10984;45.712;4.800;2023-02-12T18:48:51;2.20;99.90
21646;DHT22;10984;45.712;4.800;2023-02-12T18:51:19;2.10;99.90
21646;DHT22;10984;45.712;4.800;2023-02-12T18:53:47;2.10;99.90
21646;DHT22;10984;45.712;4.800;2023-02-12T18:56:13;2.10;99.90
21646;DHT22;10984;45.712;4.800;2023-02-12T18:58:39;2.00;99.90
21646;DHT22;10984;45.712;4.800;2023-02-12T19:01:23;2.00;99.90
21646;DHT22;10984;45.712;4.800;2023-02-12T19:03:53;1.90;99.90
21646;DHT22;10984;45.712;4.800;2023-02-12T19:06:20;1.90;99.90
21646;DHT22;10984;45.712;4.800;2023-02-12T19:08:45;1.90;99.90
21646;DHT22;10984;45.712;4.800;2023-02-12T19:11:11;1.90;99.90
21646;DHT22;10984;45.712;4.800;2023-02-12T19:13:38;1.90;99.90
21646;DHT22;10984;45.712;4.800;2023-02-12T19:16:22;1.80;99.90
21646;DHT22;10984;45.712;4.800;2023-02-12T19:18:50;1.80;99.90
21646;DHT22;10984;45.712;4.800;2023-02-12T19:21:19;1.80;99.90
21646;DHT22;10984;45.712;4.800;2023-02-12T19:23:45;1.70;99.90
21646;DHT22;10984;45.712;4.800;2023-02-12T19:26:13;1.70;99.90
21646;DHT22;10984;45.712;4.800;2023-02-12T19:28:40;1.70;99.90
21646;DHT22;10984;45.712;4.800;2023-02-12T19:31:25;1.70;99.90
21646;DHT22;10984;45.712;4.800;2023-02-12T19:34:11;1.70;99.90
21646;DHT22;10984;45.712;4.800;2023-02-12T19:36:55;1.60;99.90
21646;DHT22;10984;45.712;4.800;2023-02-12T19:39:22;1.50;99.90
21646;DHT22;10984;45.712;4.800;2023-02-12T19:41:48;1.40;99.90
21646;DHT22;10984;45.712;4.800;2023-02-12T19:47:01;1.40;99.90
21646;DHT22;10984;45.712;4.800;2023-02-12T19:49:28;1.30;99.90
21646;DHT22;10984;45.712;4.800;2023-02-12T19:51:54;1.30;99.90
21646;DHT22;10984;45.712;4.800;2023-02-12T19:54:21;1.20;99.90
21646;DHT22;10984;45.712;4.800;2023-02-12T19:56:47;1.20;99.90
21646;DHT22;10984;45.712;4.800;2023-02-12T19:59:14;1.10;99.90
21646;DHT22;10984;45.712;4.800;2023-02-12T20:01:42;1.10;99.90
21646;DHT22;10984;45.712;4.800;2023-02-12T20:04:10;1.10;99.90
21646;DHT22;10984;45.712;4.800;2023-02-12T20:06:37;1.00;99.90
21646;DHT22;10984;45.712;4.800;2023-02-12T20:09:04;1.00;99.90
21646;DHT22;10984;45.712;4.800;2023-02-12T20:11:32;1.00;99.90
21646;DHT22;10984;45.712;4.800;2023-02-12T20:14:00;0.90;99.90
21646;DHT22;10984;45.712;4.800;2023-02-12T20:16:28;0.90;99.90
21646;DHT22;10984;45.712;4.800;2023-02-12T20:19:02;0.90;99.90
21646;DHT22;10984;45.712;4.800;2023-02-12T20:21:28;0.90;99.90
21646;DHT22;10984;45.712;4.800;2023-02-12T20:23:55;0.80;99.90
21646;DHT22;10984;45.712;4.800;2023-02-12T20:26:21;0.80;99.90
21646;DHT22;10984;45.712;4.800;2023-02-12T20:28:48;0.80;99.90
21646;DHT22;10984;45.712;4.800;2023-02-12T20:31:16;0.80;99.90
21646;DHT22;10984;45.712;4.800;2023-02-12T20:33:43;0.80;99.90
21646;DHT22;10984;45.712;4.800;2023-02-12T20:36:10;0.90;99.90
21646;DHT22;10984;45.712;4.800;2023-02-12T20:38:38;0.90;99.90
21646;DHT22;10984;45.712;4.800;2023-02-12T20:41:05;0.80;99.90
21646;DHT22;10984;45.712;4.800;2023-02-12T20:43:32;0.80;99.90
21646;DHT22;10984;45.712;4.800;2023-02-12T20:46:18;0.80;99.90
21646;DHT22;10984;45.712;4.800;2023-02-12T20:48:44;0.70;99.90
21646;DHT22;10984;45.712;4.800;2023-02-12T20:51:21;0.70;99.90
21646;DHT22;10984;45.712;4.800;2023-02-12T20:53:48;0.70;99.90
21646;DHT22;10984;45.712;4.800;2023-02-12T20:56:18;0.60;99.90
21646;DHT22;10984;45.712;4.800;2023-02-12T20:58:44;0.60;99.90
21646;DHT22;10984;45.712;4.800;2023-02-12T21:04:02;0.60;99.90
21646;DHT22;10984;45.712;4.800;2023-02-12T21:06:28;0.50;99.90
21646;DHT22;10984;45.712;4.800;2023-02-12T21:08:53;0.50;99.90
21646;DHT22;10984;45.712;4.800;2023-02-12T21:11:21;0.50;99.90
21646;DHT22;10984;45.712;4.800;2023-02-12T21:13:50;0.50;99.90
21646;DHT22;10984;45.712;4.800;2023-02-12T21:16:17;0.50;99.90